Ana Sayfa
METAR-TAF:

METAR-TAF

Havaalanları :

Atina Elefterios Venizelos Uluslararası Havalimanı

Atina, Yunanistan

Enlem: 37-56N, Boylam: 023-56E, yükseklik: 94 m

Güncel hava durumu gözlemi

Rapor saat 14:20 UTC de 16 dakika önce yapıldı.
Rüzgar kuzey/kuzeydoğudan 33 kt
Sıcaklık 19°C
Nem 43%
Basınç 1023 hPa
Görüş mesafesi 10 km veya daha fazla
3000 ft yükseklikte parçalı bulutlu

METAR: LGAV 261420Z 03033KT 9999 SCT030 19/06 Q1023 NOSIG

Saat: 17:36 (14:36 UTC)

Tahmin

Rapor saat 11:00 UTC de 3 saat ve 36 dakika önce yapıldı.
Ayın 26'si saat 12 UTC'den ayın 27'si saat 12 UTC'ye kadar geçerli Tahmin
Rüzgar kuzeydoğudan 25 kt ve 35 kt'a kadar ani rüzgarlar
Görüş mesafesi 10 km veya daha fazla
3000 ft yükseklikte parçalı bulutlu
Geçici
ayın 26'si saat 12 UTC'den ayın 27'si saat 12 UTC'ye kadar
Rüzgar kuzey/kuzeydoğudan 40 kt ve 50 kt'a kadar ani rüzgarlar

TAF: LGAV 261100Z 2612/2712 04025G35KT 9999 SCT030 TEMPO 2612/2712 03040G50KT

4.000'den fazla havaalanı için hava durumu gözlemleri ve tahminleri (METAR ve TAF raporları).

Kullanılabilir istasyonlar harita üzerinde sarı ve kırmızı noktalarla gösterilir.

İstasyonun adını görmek için fareyi noktanın üzerinde gezdirin.

Sonrasında hava gözlem ve tahminlerini görmek için tıklayın.

Haritayı değiştirmek için: yaklaştırmak için siyah artı işaretli yeşil düğmeye ve uzaklaştırmak için de eksi işaretli düğmeye hızla tıklayın; bitişik haritalar için yeşil okları kullanın.


METAR-TAF: